createdAt,value
2019-04-26T00:02:44.619Z,0.90
2019-04-26T00:07:44.338Z,1.00
2019-04-26T00:12:51.752Z,0.90
2019-04-26T00:17:55.195Z,1.20
2019-04-26T00:22:54.911Z,1.83
2019-04-26T00:27:54.570Z,1.37
2019-04-26T00:32:54.390Z,1.17
2019-04-26T00:37:54.102Z,1.10
2019-04-26T00:42:57.476Z,1.00
2019-04-26T00:47:57.651Z,1.20
2019-04-26T00:52:58.229Z,0.90
2019-04-26T00:57:58.252Z,0.73
2019-04-26T01:02:58.674Z,0.90
2019-04-26T01:07:58.706Z,0.80
2019-04-26T01:12:58.487Z,0.80
2019-04-26T01:17:58.279Z,0.80
2019-04-26T01:23:01.232Z,1.17
2019-04-26T01:28:01.724Z,1.00
2019-04-26T01:33:02.470Z,1.07
2019-04-26T01:38:04.062Z,1.00
2019-04-26T01:43:16.902Z,1.00
2019-04-26T01:48:43.004Z,1.10
2019-04-26T01:53:46.723Z,1.10
2019-04-26T01:58:48.520Z,1.00
2019-04-26T02:03:48.318Z,1.20
2019-04-26T02:08:48.063Z,1.00
2019-04-26T02:13:47.882Z,1.10
2019-04-26T02:18:47.674Z,1.03
2019-04-26T02:23:56.274Z,1.20
2019-04-26T02:28:56.314Z,1.10
2019-04-26T02:33:56.140Z,1.10
2019-04-26T02:38:57.143Z,0.80
2019-04-26T02:43:59.898Z,1.07
2019-04-26T02:49:31.257Z,1.10
2019-04-26T02:54:47.726Z,1.13
2019-04-26T02:59:49.240Z,1.00
2019-04-26T03:04:52.118Z,1.17
2019-04-26T03:09:53.511Z,1.80
2019-04-26T03:15:13.427Z,0.90
2019-04-26T03:20:07.302Z,1.20
2019-04-26T03:25:16.635Z,1.20
2019-04-26T03:30:27.380Z,1.03
2019-04-26T03:35:56.557Z,1.60
2019-04-26T03:41:04.224Z,1.53
2019-04-26T03:46:35.702Z,1.60
2019-04-26T03:52:35.338Z,2.00
2019-04-26T03:57:48.533Z,1.90
2019-04-26T04:03:14.500Z,2.13
2019-04-26T04:08:21.834Z,2.27
2019-04-26T04:13:59.713Z,1.80
2019-04-26T04:19:07.494Z,1.40
2019-04-26T04:24:11.711Z,2.20
2019-04-26T04:29:47.154Z,1.70
2019-04-26T04:34:48.148Z,1.83
2019-04-26T04:40:16.259Z,2.13
2019-04-26T04:46:01.203Z,2.93
2019-04-26T04:51:44.222Z,1.33
2019-04-26T04:57:15.099Z,1.60
2019-04-26T05:02:43.509Z,1.60
2019-04-26T05:08:06.580Z,1.43
2019-04-26T05:13:21.774Z,1.50
2019-04-26T05:18:32.465Z,1.80
2019-04-26T05:24:12.906Z,1.80
2019-04-26T05:29:52.108Z,2.10
2019-04-26T05:35:00.838Z,2.00
2019-04-26T05:40:29.590Z,1.87
2019-04-26T05:46:00.911Z,1.80
2019-04-26T05:51:33.786Z,1.77
2019-04-26T05:57:47.542Z,1.80
2019-04-26T06:03:18.787Z,1.30
2019-04-26T06:09:22.647Z,1.50
2019-04-26T06:14:59.043Z,1.70
2019-04-26T06:20:26.853Z,1.67
2019-04-26T06:25:38.562Z,1.90
2019-04-26T06:30:48.428Z,2.00
2019-04-26T06:35:50.676Z,1.87
2019-04-26T06:41:02.537Z,1.77
2019-04-26T06:46:34.334Z,1.57
2019-04-26T06:51:40.180Z,1.50
2019-04-26T06:57:28.718Z,1.60
2019-04-26T07:03:08.838Z,1.57
2019-04-26T07:08:32.559Z,1.60
2019-04-26T07:14:12.562Z,1.50
2019-04-26T07:19:20.808Z,1.70
2019-04-26T07:25:01.538Z,1.77
2019-04-26T07:30:41.886Z,1.80
2019-04-26T07:36:27.534Z,2.00
2019-04-26T07:41:57.726Z,1.27
2019-04-26T07:47:20.114Z,1.87
2019-04-26T07:53:00.727Z,1.80
2019-04-26T07:58:36.154Z,1.30
2019-04-26T08:03:49.338Z,1.50
2019-04-26T08:09:03.196Z,1.73
2019-04-26T08:14:19.204Z,2.80
2019-04-26T08:19:22.999Z,2.30
2019-04-26T08:24:28.285Z,2.13
2019-04-26T08:29:33.336Z,1.50
2019-04-26T08:34:36.010Z,1.77
2019-04-26T08:39:45.566Z,1.73
2019-04-26T08:44:52.675Z,2.37
2019-04-26T08:50:13.714Z,2.10
2019-04-26T08:55:16.498Z,1.63
2019-04-26T09:00:40.354Z,1.70
2019-04-26T09:06:06.151Z,2.07
2019-04-26T09:11:08.204Z,1.90
2019-04-26T09:16:14.191Z,2.07
2019-04-26T09:21:17.463Z,1.50
2019-04-26T09:26:20.908Z,1.70
2019-04-26T09:31:29.014Z,1.93
2019-04-26T09:36:28.743Z,1.30
2019-04-26T09:41:30.814Z,2.57
2019-04-26T09:46:38.122Z,1.60
2019-04-26T09:51:39.060Z,1.53
2019-04-26T09:56:40.697Z,2.60
2019-04-26T10:01:40.758Z,1.93
2019-04-26T10:06:40.818Z,2.70
2019-04-26T10:11:45.634Z,1.10
2019-04-26T10:17:07.587Z,1.63
2019-04-26T10:22:07.387Z,2.53
2019-04-26T10:27:07.100Z,1.47
2019-04-26T10:32:06.815Z,1.60
2019-04-26T10:37:07.908Z,1.40
2019-04-26T10:42:07.787Z,1.20
2019-04-26T10:47:07.526Z,2.70
2019-04-26T10:52:11.885Z,2.27
2019-04-26T10:57:31.274Z,1.33
2019-04-26T11:02:31.214Z,1.30
2019-04-26T11:07:31.010Z,1.63
2019-04-26T11:12:30.666Z,2.10
2019-04-26T11:17:30.358Z,1.60
2019-04-26T11:22:33.466Z,2.50
2019-04-26T11:27:31.814Z,2.10
2019-04-26T11:32:33.179Z,2.50
2019-04-26T11:37:33.159Z,2.80
2019-04-26T11:42:32.878Z,3.63
2019-04-26T11:47:32.514Z,2.77
2019-04-26T11:52:35.624Z,1.83
2019-04-26T11:57:33.718Z,2.70
2019-04-26T12:02:37.194Z,3.93
2019-04-26T12:07:41.467Z,3.63
2019-04-26T12:12:43.076Z,3.20
2019-04-26T12:17:42.867Z,2.80
2019-04-26T12:22:43.359Z,2.83
2019-04-26T12:27:44.254Z,2.93
2019-04-26T12:32:44.191Z,1.63
2019-04-26T12:37:43.955Z,2.90
2019-04-26T12:42:47.354Z,3.20
2019-04-26T12:47:48.777Z,1.67
2019-04-26T12:52:51.402Z,1.97
2019-04-26T12:57:50.850Z,3.60
2019-04-26T13:02:54.225Z,2.40
2019-04-26T13:07:53.387Z,2.50
2019-04-26T13:13:06.127Z,2.73
2019-04-26T13:18:07.315Z,2.60
2019-04-26T13:23:07.438Z,2.57
2019-04-26T13:28:07.094Z,1.90
2019-04-26T13:33:06.756Z,1.43
2019-04-26T13:38:08.710Z,1.63
2019-04-26T13:43:07.966Z,1.80
2019-04-26T13:48:26.862Z,2.27
2019-04-26T13:53:26.966Z,2.63
2019-04-26T13:58:27.079Z,4.00
2019-04-26T14:03:27.166Z,5.60
2019-04-26T14:08:28.083Z,3.73
2019-04-26T14:13:27.814Z,3.90
2019-04-26T14:18:27.840Z,3.33
2019-04-26T14:23:41.530Z,3.60
2019-04-26T14:28:42.140Z,3.03
2019-04-26T14:33:42.010Z,4.90
2019-04-26T14:38:41.678Z,3.73
2019-04-26T14:43:41.644Z,3.40
2019-04-26T14:48:44.646Z,2.90
2019-04-26T14:53:43.184Z,3.27
2019-04-26T14:58:42.831Z,2.70
2019-04-26T15:03:47.357Z,4.23
2019-04-26T15:08:48.686Z,3.57
2019-04-26T15:13:48.818Z,2.77
2019-04-26T15:18:48.590Z,2.30
2019-04-26T15:23:48.313Z,2.77
2019-04-26T15:28:50.517Z,3.10
2019-04-26T15:33:50.177Z,3.43
2019-04-26T15:38:50.738Z,3.00
2019-04-26T15:44:11.299Z,1.80
2019-04-26T15:49:36.523Z,4.00
2019-04-26T15:54:34.716Z,3.63
2019-04-26T15:59:34.375Z,5.00
2019-04-26T16:04:34.118Z,3.83
2019-04-26T16:09:33.842Z,5.70
2019-04-26T16:14:36.628Z,7.30
2019-04-26T16:19:36.105Z,6.63
2019-04-26T16:24:35.814Z,6.87
2019-04-26T16:30:06.602Z,4.50
2019-04-26T16:35:07.400Z,5.60
2019-04-26T16:40:07.774Z,8.93
2019-04-26T16:45:09.377Z,5.97
2019-04-26T16:50:09.284Z,7.00
2019-04-26T16:55:17.751Z,6.00
2019-04-26T17:00:15.793Z,6.17
2019-04-26T17:05:23.793Z,6.57
2019-04-26T17:10:16.736Z,6.20
2019-04-26T17:15:17.469Z,5.73
2019-04-26T17:20:17.863Z,4.93
2019-04-26T17:25:27.515Z,8.87
2019-04-26T17:30:27.356Z,5.90
2019-04-26T17:35:27.087Z,4.93
2019-04-26T17:40:30.213Z,4.33
2019-04-26T17:45:28.255Z,4.33
2019-04-26T17:50:27.894Z,3.50
2019-04-26T17:55:30.993Z,3.80
2019-04-26T18:00:37.177Z,2.67
2019-04-26T18:05:45.130Z,3.37
2019-04-26T18:10:35.582Z,3.03
2019-04-26T18:15:35.653Z,3.27
2019-04-26T18:21:00.402Z,4.30
2019-04-26T18:26:00.186Z,2.87
2019-04-26T18:30:59.930Z,4.13
2019-04-26T18:35:59.931Z,3.07
2019-04-26T18:41:01.347Z,4.10
2019-04-26T18:46:06.599Z,4.90
2019-04-26T18:51:07.580Z,3.40
2019-04-26T18:56:07.910Z,3.60
2019-04-26T19:01:09.203Z,5.03
2019-04-26T19:06:08.978Z,4.63
2019-04-26T19:11:11.608Z,4.70
2019-04-26T19:16:25.246Z,4.40
2019-04-26T19:21:38.979Z,5.03
2019-04-26T19:26:36.232Z,4.07
2019-04-26T19:31:35.975Z,4.77
2019-04-26T19:36:36.170Z,5.20
2019-04-26T19:41:35.928Z,5.03
2019-04-26T19:46:43.806Z,4.60
2019-04-26T19:52:11.994Z,5.60
2019-04-26T19:57:17.306Z,5.60
2019-04-26T20:02:17.038Z,5.20
2019-04-26T20:07:16.923Z,5.50
2019-04-26T20:12:17.151Z,7.03
2019-04-26T20:17:19.740Z,7.53
2019-04-26T20:22:22.134Z,6.80
2019-04-26T20:27:23.781Z,8.80
2019-04-26T20:32:34.438Z,9.60
2019-04-26T20:37:34.105Z,10.00
2019-04-26T20:42:34.155Z,9.43
2019-04-26T20:47:35.278Z,12.07
2019-04-26T20:52:34.978Z,8.87
2019-04-26T20:57:35.001Z,8.43
2019-04-26T21:02:34.738Z,9.27
2019-04-26T21:07:34.391Z,9.70
2019-04-26T21:12:34.618Z,13.73
2019-04-26T21:17:34.454Z,10.40
2019-04-26T21:22:34.262Z,9.67
2019-04-26T21:27:44.324Z,9.90
2019-04-26T21:32:56.035Z,9.93
2019-04-26T21:38:06.654Z,17.83
2019-04-26T21:43:06.390Z,14.50
2019-04-26T21:48:07.071Z,16.27
2019-04-26T21:53:07.785Z,8.50
2019-04-26T21:58:07.444Z,12.67
2019-04-26T22:03:07.877Z,16.33
2019-04-26T22:08:09.157Z,9.07
2019-04-26T22:13:18.507Z,11.87
2019-04-26T22:18:22.707Z,17.10
2019-04-26T22:23:43.537Z,11.00
2019-04-26T22:28:43.507Z,12.30
2019-04-26T22:33:44.578Z,11.57
2019-04-26T22:38:44.394Z,11.77
2019-04-26T22:44:08.382Z,17.63
2019-04-26T22:49:08.752Z,19.30
2019-04-26T22:54:08.758Z,10.60
2019-04-26T22:59:08.427Z,10.50
2019-04-26T23:04:08.502Z,11.60
2019-04-26T23:09:11.718Z,17.47
2019-04-26T23:14:19.225Z,12.40
2019-04-26T23:19:27.307Z,11.67
2019-04-26T23:24:26.985Z,10.27
2019-04-26T23:29:26.622Z,10.87
2019-04-26T23:34:26.290Z,10.40
2019-04-26T23:39:26.378Z,11.37
2019-04-26T23:44:26.049Z,13.53
2019-04-26T23:49:25.676Z,12.80
2019-04-26T23:54:28.121Z,9.07
2019-04-26T23:59:26.684Z,11.13
